Time;durP1;ratioP1;P1;durP2;ratioP2;P2;SDS_P1;SDS_P2;PMS_P1;PMS_P2;Temp;Humidity;BMP_temperature;BMP_pressure;BME280_temperature;BME280_humidity;BME280_pressure;Samples;Min_cycle;Max_cycle;Signal;HPM_P1;HPM_P2
2023/02/02 00:01:53;;;;;;;14.10;4.68;;;3.60;99.90;;;;;;5025877;28;20025;-51
2023/02/02 00:04:39;;;;;;;16.00;5.00;;;3.70;99.90;;;;;;5027111;28;20014;-49
2023/02/02 00:07:24;;;;;;;10.82;3.80;;;3.70;99.90;;;;;;5026734;28;20073;-47
2023/02/02 00:10:10;;;;;;;10.88;4.35;;;3.70;99.90;;;;;;5013963;28;20068;-51
2023/02/02 00:12:56;;;;;;;14.85;4.55;;;3.70;99.90;;;;;;5028303;28;20033;-52
2023/02/02 00:15:42;;;;;;;14.48;4.10;;;3.60;99.90;;;;;;5028847;28;20129;-47
2023/02/02 00:18:28;;;;;;;10.80;4.28;;;3.50;99.90;;;;;;5013439;28;20441;-51
2023/02/02 00:21:14;;;;;;;16.45;4.60;;;3.50;99.90;;;;;;5030357;28;20609;-48
2023/02/02 00:24:00;;;;;;;9.07;4.28;;;3.50;99.90;;;;;;5028786;28;20048;-51
2023/02/02 00:26:49;;;;;;;10.93;4.20;;;3.40;99.90;;;;;;5028634;28;20030;-51
2023/02/02 00:29:35;;;;;;;15.70;4.70;;;3.40;99.90;;;;;;5023773;28;20048;-50
2023/02/02 00:32:20;;;;;;;12.00;3.83;;;3.50;99.90;;;;;;5026576;28;20149;-54
2023/02/02 00:35:08;;;;;;;13.50;4.15;;;3.50;99.90;;;;;;5027594;28;20041;-49
2023/02/02 00:37:53;;;;;;;9.77;3.75;;;3.50;99.90;;;;;;5027314;28;20026;-49
2023/02/02 00:40:39;;;;;;;14.80;3.85;;;3.60;99.90;;;;;;5029906;28;20036;-52
2023/02/02 00:43:25;;;;;;;11.50;4.32;;;3.60;99.90;;;;;;5029305;28;20375;-51
2023/02/02 00:46:17;;;;;;;12.73;4.28;;;3.70;99.90;;;;;;5023277;28;20037;-48
2023/02/02 00:49:03;;;;;;;23.70;4.15;;;3.70;99.90;;;;;;5028313;28;20053;-46
2023/02/02 00:51:49;;;;;;;13.93;4.32;;;3.80;99.90;;;;;;5029747;28;20041;-47
2023/02/02 00:54:35;;;;;;;14.52;3.97;;;3.80;99.90;;;;;;5012530;28;20024;-43
2023/02/02 00:57:21;;;;;;;12.68;3.65;;;3.90;99.90;;;;;;5012791;28;20060;-46
2023/02/02 01:00:11;;;;;;;14.35;3.20;;;4.00;99.90;;;;;;5020248;28;20072;-48
2023/02/02 01:03:03;;;;;;;16.90;3.95;;;4.10;99.90;;;;;;5038138;28;20033;-46
2023/02/02 01:05:50;;;;;;;13.90;3.28;;;4.20;99.90;;;;;;5029570;28;20034;-48
2023/02/02 01:08:36;;;;;;;16.92;3.40;;;4.20;99.90;;;;;;5034451;28;20033;-54
2023/02/02 01:11:24;;;;;;;8.68;3.00;;;4.20;99.90;;;;;;5036405;28;20754;-45
2023/02/02 01:14:10;;;;;;;11.52;4.03;;;4.20;99.90;;;;;;5029394;28;20579;-49
2023/02/02 01:16:56;;;;;;;17.42;3.22;;;4.30;99.90;;;;;;5022744;28;20113;-48
2023/02/02 01:19:42;;;;;;;9.23;2.90;;;4.40;99.90;;;;;;5034612;28;20061;-51
2023/02/02 01:22:28;;;;;;;11.73;3.35;;;4.40;99.90;;;;;;5019614;28;20426;-51
2023/02/02 01:25:14;;;;;;;16.17;3.58;;;4.40;99.90;;;;;;5030643;28;20037;-53
2023/02/02 01:27:59;;;;;;;12.75;3.40;;;4.40;99.90;;;;;;5024944;28;20028;-48
2023/02/02 01:30:45;;;;;;;18.60;4.40;;;4.40;99.90;;;;;;5028954;28;20026;-48
2023/02/02 01:33:31;;;;;;;15.07;4.03;;;4.30;99.90;;;;;;5030099;28;20033;-50
2023/02/02 01:36:22;;;;;;;14.10;3.65;;;4.30;99.90;;;;;;5029346;28;20032;-48
2023/02/02 01:39:08;;;;;;;11.05;3.17;;;4.30;99.90;;;;;;5029844;28;20025;-47
2023/02/02 01:41:54;;;;;;;15.30;3.53;;;4.30;99.90;;;;;;5007165;28;20022;-47
2023/02/02 01:45:05;;;;;;;14.32;3.90;;;4.30;99.90;;;;;;5029509;28;20037;-51
2023/02/02 01:47:55;;;;;;;11.52;3.53;;;4.40;99.90;;;;;;5029931;28;20037;-48
2023/02/02 01:50:42;;;;;;;11.43;3.38;;;4.30;99.90;;;;;;5028839;28;20018;-48
2023/02/02 01:53:29;;;;;;;14.10;3.92;;;4.30;99.90;;;;;;5029134;28;20458;-50
2023/02/02 01:56:23;;;;;;;20.58;3.75;;;4.30;99.90;;;;;;5029441;28;20105;-46
2023/02/02 01:59:10;;;;;;;13.82;3.45;;;4.30;99.90;;;;;;5030894;28;20025;-46
2023/02/02 02:01:58;;;;;;;15.23;4.07;;;4.30;99.90;;;;;;5029957;28;20033;-52
2023/02/02 02:04:44;;;;;;;12.68;3.30;;;4.20;99.90;;;;;;5029012;28;20454;-49
2023/02/02 02:07:30;;;;;;;11.68;3.25;;;4.20;99.90;;;;;;5020461;28;20108;-48
2023/02/02 02:10:17;;;;;;;14.85;3.65;;;4.10;99.90;;;;;;5044325;28;20055;-48
2023/02/02 02:13:04;;;;;;;14.05;4.45;;;4.00;99.90;;;;;;5040973;28;20041;-49
2023/02/02 02:19:34;;;;;;;17.17;4.20;;;4.00;99.90;;;;;;5032058;28;20404;-52
2023/02/02 02:29:37;;;;;;;12.43;3.20;;;4.10;99.90;;;;;;5034454;28;20026;-49
2023/02/02 02:32:51;;;;;;;18.02;4.40;;;4.10;99.90;;;;;;5019604;28;20111;-48
2023/02/02 02:35:43;;;;;;;9.10;3.65;;;4.10;99.90;;;;;;5036872;28;20043;-47
2023/02/02 02:38:50;;;;;;;12.52;3.53;;;4.00;99.90;;;;;;5014356;28;20453;-49
2023/02/02 02:41:43;;;;;;;11.13;3.25;;;3.90;99.90;;;;;;5019301;28;20014;-47
2023/02/02 02:44:30;;;;;;;15.15;3.75;;;3.90;99.90;;;;;;5032787;28;20029;-51
2023/02/02 02:47:18;;;;;;;10.15;3.53;;;3.90;99.90;;;;;;5031677;28;20378;-47
2023/02/02 02:50:04;;;;;;;12.27;4.30;;;3.90;99.90;;;;;;5032695;28;20025;-49
2023/02/02 02:53:05;;;;;;;13.30;3.53;;;4.00;99.90;;;;;;5032804;28;20032;-46
2023/02/02 02:56:19;;;;;;;12.82;3.38;;;4.00;99.90;;;;;;5032319;28;20032;-51
2023/02/02 02:59:29;;;;;;;14.68;3.75;;;4.10;99.90;;;;;;5001566;28;20545;-51
2023/02/02 03:02:46;;;;;;;16.08;3.50;;;4.10;99.90;;;;;;5027801;28;20430;-49
2023/02/02 03:05:56;;;;;;;15.77;3.65;;;4.20;99.90;;;;;;5032466;28;20294;-46
2023/02/02 03:09:05;;;;;;;12.35;3.50;;;4.20;99.90;;;;;;5043526;28;20029;-50
2023/02/02 03:11:51;;;;;;;13.73;3.60;;;4.20;99.90;;;;;;5039622;28;20168;-48
2023/02/02 03:14:38;;;;;;;10.60;3.50;;;4.10;99.90;;;;;;5032801;28;20048;-49
2023/02/02 03:17:26;;;;;;;15.82;3.38;;;4.00;99.90;;;;;;5032607;28;20153;-49
2023/02/02 03:20:12;;;;;;;14.50;3.22;;;4.00;99.90;;;;;;5031924;28;20183;-49
2023/02/02 03:22:58;;;;;;;13.32;3.25;;;4.00;99.90;;;;;;5031332;28;20030;-46
2023/02/02 03:25:45;;;;;;;11.73;3.97;;;4.00;99.90;;;;;;5030989;28;20029;-49
2023/02/02 03:28:31;;;;;;;14.23;3.90;;;4.00;99.90;;;;;;5031711;28;20076;-49
2023/02/02 03:31:17;;;;;;;7.40;3.17;;;4.00;99.90;;;;;;5032205;28;20056;-48
2023/02/02 03:34:03;;;;;;;10.88;3.05;;;4.10;99.90;;;;;;5017296;28;20041;-47
2023/02/02 03:36:49;;;;;;;15.90;4.63;;;4.20;99.90;;;;;;5030396;28;20034;-47
2023/02/02 03:39:35;;;;;;;16.27;4.18;;;4.30;99.90;;;;;;5031963;28;20041;-46
2023/02/02 03:42:21;;;;;;;10.80;3.35;;;4.30;99.90;;;;;;5030888;28;20036;-46
2023/02/02 03:45:07;;;;;;;25.13;4.70;;;4.30;99.90;;;;;;5031301;28;20033;-48
2023/02/02 03:47:53;;;;;;;13.55;3.47;;;4.40;99.90;;;;;;5030655;28;20030;-49
2023/02/02 03:50:39;;;;;;;13.13;3.08;;;4.30;99.90;;;;;;5031023;28;20037;-50
2023/02/02 03:53:25;;;;;;;10.82;4.25;;;4.20;99.90;;;;;;5031470;28;20084;-50
2023/02/02 03:56:11;;;;;;;14.68;3.67;;;4.20;99.90;;;;;;5031102;28;20021;-48
2023/02/02 03:58:57;;;;;;;9.13;3.15;;;4.40;99.90;;;;;;5031457;28;20499;-48
2023/02/02 04:01:43;;;;;;;6.72;2.75;;;4.50;99.90;;;;;;5031219;28;20134;-50
2023/02/02 04:04:29;;;;;;;14.98;3.00;;;4.60;99.90;;;;;;5030584;28;20116;-47
2023/02/02 04:07:15;;;;;;;10.80;3.33;;;4.60;99.90;;;;;;5012432;28;20125;-52
2023/02/02 04:10:02;;;;;;;13.52;4.15;;;4.60;99.90;;;;;;5014887;28;20026;-51
2023/02/02 04:12:48;;;;;;;10.02;3.72;;;4.60;99.90;;;;;;5030986;28;20031;-47
2023/02/02 04:15:33;;;;;;;13.82;3.05;;;4.80;99.90;;;;;;5030593;28;20021;-51
2023/02/02 04:18:19;;;;;;;11.15;4.07;;;4.80;99.90;;;;;;5033806;28;20025;-51
2023/02/02 04:21:06;;;;;;;8.65;3.08;;;4.80;99.90;;;;;;5030675;28;20040;-51
2023/02/02 04:23:52;;;;;;;8.88;2.72;;;4.90;99.90;;;;;;5031708;28;20489;-49
2023/02/02 04:26:38;;;;;;;12.07;3.40;;;4.90;99.90;;;;;;5015059;28;20064;-48
2023/02/02 04:29:25;;;;;;;18.02;3.72;;;4.90;99.90;;;;;;5029636;28;20060;-52
2023/02/02 04:32:13;;;;;;;11.50;3.28;;;4.90;99.90;;;;;;5030110;28;20029;-45
2023/02/02 04:34:58;;;;;;;14.50;3.67;;;5.00;99.90;;;;;;5016032;28;20025;-45
2023/02/02 04:37:44;;;;;;;15.43;3.95;;;4.90;99.90;;;;;;5014875;28;20555;-49
2023/02/02 04:40:30;;;;;;;10.57;3.65;;;4.70;99.90;;;;;;5029461;28;20029;-48
2023/02/02 04:43:16;;;;;;;13.82;4.10;;;4.50;99.90;;;;;;5031051;28;20034;-48
2023/02/02 04:46:03;;;;;;;19.88;4.45;;;4.40;99.90;;;;;;5029554;28;20037;-50
2023/02/02 04:48:49;;;;;;;13.48;3.75;;;4.40;99.90;;;;;;5031953;28;20033;-49
2023/02/02 04:51:35;;;;;;;11.23;3.20;;;4.20;99.90;;;;;;5010559;28;20026;-48
2023/02/02 04:54:21;;;;;;;8.27;3.45;;;4.30;99.90;;;;;;5000102;28;20048;-50
2023/02/02 04:57:07;;;;;;;13.57;3.78;;;4.20;99.90;;;;;;5030076;28;20494;-48
2023/02/02 04:59:53;;;;;;;15.30;3.83;;;4.20;99.90;;;;;;5029924;28;20502;-51
2023/02/02 05:02:40;;;;;;;16.70;3.95;;;4.30;99.90;;;;;;5030053;28;20060;-50
2023/02/02 05:05:26;;;;;;;14.55;4.55;;;4.30;99.90;;;;;;5011753;28;20023;-48
2023/02/02 05:08:12;;;;;;;12.30;3.70;;;4.40;99.90;;;;;;5001287;28;20064;-48
2023/02/02 05:10:58;;;;;;;14.02;3.70;;;4.60;99.90;;;;;;5025980;28;20030;-47
2023/02/02 05:13:46;;;;;;;16.25;3.85;;;4.80;99.90;;;;;;5023030;28;20037;-47
2023/02/02 05:16:32;;;;;;;14.25;4.35;;;4.90;99.90;;;;;;5033460;28;20026;-48
2023/02/02 05:19:17;;;;;;;13.85;3.17;;;5.10;99.90;;;;;;5033972;28;20037;-49
2023/02/02 05:22:03;;;;;;;16.48;3.35;;;5.10;99.90;;;;;;5030330;28;20498;-48
2023/02/02 05:24:49;;;;;;;15.60;3.83;;;5.20;99.90;;;;;;5030056;28;20030;-48
2023/02/02 05:27:35;;;;;;;14.68;3.28;;;5.20;99.90;;;;;;5029448;28;20026;-45
2023/02/02 05:30:21;;;;;;;19.63;3.75;;;5.20;99.90;;;;;;5027805;28;20036;-49
2023/02/02 05:33:07;;;;;;;14.07;3.83;;;5.20;99.90;;;;;;5030273;28;20030;-53
2023/02/02 05:35:53;;;;;;;15.85;3.50;;;5.20;99.90;;;;;;5001152;28;20497;-54
2023/02/02 05:38:39;;;;;;;19.77;4.45;;;5.20;99.90;;;;;;5029980;28;20490;-50
2023/02/02 05:41:25;;;;;;;15.95;4.50;;;5.10;99.90;;;;;;5032064;28;20034;-53
2023/02/02 05:44:12;;;;;;;14.73;3.85;;;5.10;99.90;;;;;;4992977;28;20495;-52
2023/02/02 05:46:58;;;;;;;16.67;3.28;;;5.20;99.90;;;;;;5012009;28;20430;-53
2023/02/02 05:49:44;;;;;;;13.55;3.95;;;5.20;99.90;;;;;;5015142;28;20039;-49
2023/02/02 05:52:33;;;;;;;16.65;4.72;;;5.20;99.90;;;;;;5017118;28;20033;-50
2023/02/02 05:55:19;;;;;;;14.57;3.70;;;5.10;99.90;;;;;;5033883;28;20022;-51
2023/02/02 05:58:05;;;;;;;13.20;3.40;;;5.20;99.90;;;;;;5032961;28;20030;-50
2023/02/02 06:00:51;;;;;;;16.00;4.25;;;5.20;99.90;;;;;;5033062;28;20406;-51
2023/02/02 06:03:37;;;;;;;12.50;4.22;;;5.20;99.90;;;;;;5034867;28;20037;-49
2023/02/02 06:06:23;;;;;;;11.10;3.75;;;5.20;99.90;;;;;;5032517;28;20037;-48
2023/02/02 06:09:09;;;;;;;14.85;3.92;;;5.30;99.90;;;;;;5033329;28;20025;-49
2023/02/02 06:11:55;;;;;;;16.52;4.25;;;5.30;99.90;;;;;;5032455;28;20033;-51
2023/02/02 06:14:41;;;;;;;20.20;4.38;;;5.20;99.90;;;;;;5033588;28;20022;-52
2023/02/02 06:17:27;;;;;;;19.98;4.28;;;5.30;99.90;;;;;;5032170;28;20034;-49
2023/02/02 06:20:13;;;;;;;14.55;4.05;;;5.30;99.90;;;;;;5033576;28;20029;-49
2023/02/02 06:22:59;;;;;;;12.32;3.47;;;5.30;99.90;;;;;;5032598;28;20607;-48
2023/02/02 06:25:45;;;;;;;19.42;4.18;;;5.10;99.90;;;;;;5033091;28;20045;-49
2023/02/02 06:28:31;;;;;;;13.82;4.25;;;5.20;99.90;;;;;;5018050;28;20065;-48
2023/02/02 06:31:18;;;;;;;15.73;3.05;;;5.20;99.90;;;;;;5032245;28;20112;-48
2023/02/02 06:34:04;;;;;;;15.48;3.83;;;5.10;99.90;;;;;;5032468;28;20383;-55
2023/02/02 06:36:49;;;;;;;20.25;4.13;;;5.10;99.90;;;;;;5018155;28;20034;-50
2023/02/02 06:39:35;;;;;;;9.00;3.42;;;5.30;99.90;;;;;;5032915;28;20401;-53
2023/02/02 06:42:21;;;;;;;12.52;3.80;;;5.30;99.90;;;;;;5033177;28;20033;-49
2023/02/02 06:45:08;;;;;;;17.52;3.55;;;5.30;99.90;;;;;;5032255;28;20029;-48
2023/02/02 06:47:59;;;;;;;19.33;4.53;;;5.20;99.90;;;;;;5033085;28;20060;-50
2023/02/02 06:50:45;;;;;;;16.42;4.15;;;5.20;99.90;;;;;;5032057;28;20061;-49
2023/02/02 06:53:32;;;;;;;15.20;4.20;;;5.30;99.90;;;;;;5031197;28;20494;-48
2023/02/02 06:56:18;;;;;;;16.00;3.63;;;5.20;99.90;;;;;;5031756;28;20167;-53
2023/02/02 06:59:04;;;;;;;19.15;4.22;;;5.20;99.90;;;;;;5032301;28;20025;-50
2023/02/02 07:01:50;;;;;;;13.13;3.65;;;5.20;99.90;;;;;;5030710;28;20379;-49
2023/02/02 07:04:36;;;;;;;18.98;4.07;;;5.20;99.90;;;;;;5032335;28;20032;-49
2023/02/02 07:07:21;;;;;;;13.25;4.00;;;5.30;99.90;;;;;;5029468;28;20021;-49
2023/02/02 07:10:08;;;;;;;13.18;3.92;;;5.30;99.90;;;;;;5039129;28;20033;-49
2023/02/02 07:12:54;;;;;;;15.25;4.32;;;5.30;99.90;;;;;;5053002;28;20032;-50
2023/02/02 07:15:40;;;;;;;12.57;4.03;;;5.30;99.90;;;;;;5036814;28;20099;-54
2023/02/02 07:18:26;;;;;;;14.52;4.65;;;5.30;99.90;;;;;;5025101;28;20033;-51
2023/02/02 07:21:17;;;;;;;17.25;4.07;;;5.40;99.90;;;;;;5041589;28;20553;-51
2023/02/02 07:24:04;;;;;;;16.92;4.78;;;5.40;99.90;;;;;;5029883;28;20037;-50
2023/02/02 07:26:50;;;;;;;18.55;4.07;;;5.30;99.90;;;;;;5024644;28;20030;-54
2023/02/02 07:29:36;;;;;;;16.50;3.90;;;5.40;99.90;;;;;;5027159;28;20033;-53
2023/02/02 07:32:22;;;;;;;16.33;4.03;;;5.40;99.90;;;;;;5023995;28;20029;-51
2023/02/02 07:35:08;;;;;;;16.92;3.60;;;5.40;99.90;;;;;;5035626;28;20021;-50
2023/02/02 07:37:54;;;;;;;13.23;3.97;;;5.40;99.90;;;;;;5031170;28;20034;-50
2023/02/02 07:40:41;;;;;;;21.48;3.95;;;5.30;99.90;;;;;;5026851;28;20018;-49
2023/02/02 07:43:27;;;;;;;16.05;5.03;;;5.30;99.90;;;;;;5034156;28;20024;-50
2023/02/02 07:46:13;;;;;;;18.85;4.15;;;5.30;99.90;;;;;;5026592;28;20549;-51
2023/02/02 07:48:59;;;;;;;14.13;4.78;;;5.40;99.90;;;;;;5029416;28;20025;-51
2023/02/02 07:51:47;;;;;;;16.55;3.78;;;5.40;99.90;;;;;;4996725;28;20517;-50
2023/02/02 07:54:34;;;;;;;13.35;3.63;;;5.30;99.90;;;;;;5023084;28;20452;-53
2023/02/02 07:57:20;;;;;;;10.82;4.32;;;5.20;99.90;;;;;;5024244;28;20033;-52
2023/02/02 08:00:06;;;;;;;17.35;4.30;;;5.20;99.90;;;;;;5033366;28;20132;-51
2023/02/02 08:02:52;;;;;;;17.48;4.28;;;5.40;99.90;;;;;;5030087;28;20041;-52
2023/02/02 08:05:42;;;;;;;12.80;3.83;;;5.30;99.90;;;;;;5038733;28;20030;-53
2023/02/02 08:08:28;;;;;;;16.98;4.93;;;5.30;99.90;;;;;;5011539;28;20061;-50
2023/02/02 08:11:16;;;;;;;17.42;4.10;;;5.30;99.90;;;;;;5028917;28;20037;-52
2023/02/02 08:14:04;;;;;;;18.25;4.47;;;5.40;99.90;;;;;;5027312;28;20034;-51
2023/02/02 08:16:49;;;;;;;18.92;4.20;;;5.50;99.90;;;;;;5031121;28;20042;-53
2023/02/02 08:19:35;;;;;;;12.80;3.58;;;5.50;99.90;;;;;;5024597;28;20088;-51
2023/02/02 08:22:21;;;;;;;19.20;4.30;;;5.50;99.90;;;;;;5030270;28;20043;-54
2023/02/02 08:25:08;;;;;;;21.45;5.53;;;5.60;99.90;;;;;;5032732;28;20060;-52
2023/02/02 08:27:57;;;;;;;18.08;4.80;;;5.50;99.90;;;;;;5011779;28;20038;-56
2023/02/02 08:30:43;;;;;;;26.35;7.10;;;5.50;99.90;;;;;;5029635;28;20120;-48
2023/02/02 08:33:29;;;;;;;17.05;4.10;;;5.50;99.90;;;;;;5015580;28;20093;-50
2023/02/02 08:36:17;;;;;;;14.85;4.35;;;5.60;99.90;;;;;;5030462;28;20028;-50
2023/02/02 08:39:06;;;;;;;14.30;4.18;;;5.70;99.90;;;;;;5029779;28;20033;-52
2023/02/02 08:41:54;;;;;;;18.98;4.82;;;5.70;99.90;;;;;;5027777;28;20481;-49
2023/02/02 08:44:40;;;;;;;12.40;4.20;;;5.70;99.90;;;;;;5014138;28;20029;-55
2023/02/02 08:47:29;;;;;;;18.90;4.63;;;5.70;99.90;;;;;;5033274;28;20093;-50
2023/02/02 08:50:16;;;;;;;20.42;5.20;;;5.80;99.90;;;;;;5029968;28;20100;-55
2023/02/02 08:53:01;;;;;;;24.65;4.88;;;5.70;99.90;;;;;;5028300;28;20452;-48
2023/02/02 08:55:56;;;;;;;19.63;4.47;;;5.80;99.90;;;;;;5030541;28;20437;-47
2023/02/02 08:58:51;;;;;;;15.65;4.28;;;5.70;99.90;;;;;;5023986;28;20081;-50
2023/02/02 09:01:37;;;;;;;;;;;5.90;99.90;;;;;;5024831;28;20029;-50
2023/02/02 09:04:23;;;;;;;16.98;4.30;;;6.00;99.90;;;;;;5012707;28;19981;-49
2023/02/02 09:07:09;;;;;;;15.80;4.40;;;6.00;99.90;;;;;;5030994;28;20398;-49
2023/02/02 09:09:57;;;;;;;16.73;4.47;;;6.10;99.90;;;;;;5029094;28;20393;-50
2023/02/02 09:12:42;;;;;;;20.45;4.95;;;6.10;99.90;;;;;;5029649;28;20045;-54
2023/02/02 09:15:29;;;;;;;18.95;4.55;;;6.00;99.90;;;;;;5029950;28;20029;-49
2023/02/02 09:18:15;;;;;;;18.35;3.80;;;6.10;99.90;;;;;;5035898;28;20025;-54
2023/02/02 09:21:04;;;;;;;21.27;5.47;;;6.10;99.90;;;;;;5030037;28;20040;-47
2023/02/02 09:23:52;;;;;;;18.20;4.72;;;6.10;99.90;;;;;;5029773;28;20033;-56
2023/02/02 09:26:39;;;;;;;17.92;4.05;;;6.20;99.90;;;;;;5030972;28;20038;-51
2023/02/02 09:29:25;;;;;;;13.05;4.00;;;6.20;99.90;;;;;;5032231;28;20017;-54
2023/02/02 09:32:11;;;;;;;23.77;5.10;;;6.20;99.90;;;;;;5034237;28;20026;-50
2023/02/02 09:34:59;;;;;;;16.45;5.35;;;6.10;99.90;;;;;;5035275;28;20026;-50
2023/02/02 09:37:45;;;;;;;16.50;4.00;;;6.20;99.90;;;;;;5034435;28;20033;-49
2023/02/02 09:40:33;;;;;;;17.95;5.22;;;6.30;99.90;;;;;;5019229;28;20505;-51
2023/02/02 09:43:28;;;;;;;16.27;4.60;;;6.30;99.90;;;;;;5034044;28;20105;-51
2023/02/02 09:46:34;;;;;;;17.37;5.40;;;6.40;99.90;;;;;;5034342;28;20022;-50
2023/02/02 09:49:44;;;;;;;18.20;5.13;;;6.30;99.90;;;;;;5033238;28;20033;-47
2023/02/02 09:52:52;;;;;;;18.75;4.22;;;6.40;99.90;;;;;;5033719;28;20049;-50
2023/02/02 09:55:43;;;;;;;20.10;4.45;;;6.30;99.90;;;;;;5033120;28;20022;-50
2023/02/02 09:58:47;;;;;;;18.15;4.13;;;6.40;99.90;;;;;;5032989;28;20516;-49
2023/02/02 10:01:36;;;;;;;16.55;4.93;;;6.40;99.90;;;;;;5033856;28;20057;-50
2023/02/02 10:04:32;;;;;;;16.00;4.55;;;6.50;99.90;;;;;;5033478;28;20052;-48
2023/02/02 10:07:40;;;;;;;20.35;4.72;;;6.60;99.90;;;;;;5033872;28;20112;-49
2023/02/02 10:10:45;;;;;;;15.50;4.07;;;6.60;99.90;;;;;;5034591;28;20018;-52
2023/02/02 10:13:36;;;;;;;14.25;4.13;;;6.60;99.90;;;;;;5033242;28;20037;-51
2023/02/02 10:16:24;;;;;;;20.77;5.03;;;6.50;99.90;;;;;;5042679;28;20052;-50
2023/02/02 10:19:12;;;;;;;18.25;4.35;;;6.50;99.90;;;;;;5042259;28;20026;-51
2023/02/02 10:22:16;;;;;;;31.17;5.80;;;6.60;99.90;;;;;;5034050;28;20060;-50
2023/02/02 10:25:02;;;;;;;18.35;5.18;;;6.50;99.90;;;;;;5032991;28;20110;-51
2023/02/02 10:28:05;;;;;;;16.40;4.55;;;6.50;99.90;;;;;;5017749;28;20029;-55
2023/02/02 10:30:59;;;;;;;22.40;4.97;;;6.60;99.90;;;;;;5029346;28;20025;-52
2023/02/02 10:33:57;;;;;;;24.05;5.10;;;6.50;99.90;;;;;;5018279;28;20026;-49
2023/02/02 10:37:00;;;;;;;14.98;4.45;;;6.60;99.90;;;;;;5033338;28;20418;-49
2023/02/02 10:40:13;;;;;;;14.48;3.97;;;6.50;99.90;;;;;;5033863;28;20022;-47
2023/02/02 10:43:47;;;;;;;17.23;5.07;;;6.40;99.90;;;;;;5031923;28;20017;-49
2023/02/02 10:46:39;;;;;;;21.30;5.00;;;6.50;99.90;;;;;;5012936;28;20030;-48
2023/02/02 10:49:33;;;;;;;16.48;4.30;;;6.80;99.90;;;;;;5021682;28;20017;-53
2023/02/02 10:52:28;;;;;;;19.05;4.78;;;7.10;99.90;;;;;;5032399;28;20379;-50
2023/02/02 10:55:40;;;;;;;16.52;4.70;;;7.30;99.90;;;;;;5034559;28;20030;-49
2023/02/02 10:58:31;;;;;;;19.35;5.38;;;7.20;99.90;;;;;;5032227;28;20038;-48
2023/02/02 11:01:21;;;;;;;16.60;5.05;;;6.80;99.90;;;;;;5018862;28;20453;-50
2023/02/02 11:07:19;;;;;;;23.92;5.65;;;6.70;99.90;;;;;;5031257;28;20037;-53
2023/02/02 11:10:05;;;;;;;20.83;4.82;;;6.70;99.90;;;;;;5031791;28;20394;-56
2023/02/02 11:12:55;;;;;;;19.00;5.60;;;6.80;99.90;;;;;;5032279;28;20430;-50
2023/02/02 11:15:41;;;;;;;21.63;6.35;;;6.70;99.90;;;;;;5036547;28;20060;-51
2023/02/02 11:18:29;;;;;;;13.02;3.92;;;6.70;99.90;;;;;;5019044;28;20077;-49
2023/02/02 11:21:29;;;;;;;22.92;5.03;;;6.80;99.90;;;;;;5031188;28;20022;-50
2023/02/02 11:24:29;;;;;;;20.17;4.90;;;7.10;99.90;;;;;;5032220;28;20436;-54
2023/02/02 11:27:20;;;;;;;17.85;5.50;;;7.50;99.90;;;;;;5032728;28;20029;-46
2023/02/02 11:30:22;;;;;;;22.25;4.63;;;7.70;99.90;;;;;;5016609;28;20117;-54
2023/02/02 11:33:32;;;;;;;23.98;4.78;;;7.70;99.90;;;;;;5026630;28;20041;-54
2023/02/02 11:36:20;;;;;;;14.82;4.32;;;7.40;99.90;;;;;;5024331;28;20018;-50
2023/02/02 11:39:20;;;;;;;15.57;4.45;;;7.10;99.90;;;;;;5010877;28;20092;-46
2023/02/02 11:42:21;;;;;;;13.02;3.97;;;7.10;99.90;;;;;;5011742;28;20049;-51
2023/02/02 11:45:17;;;;;;;14.73;4.10;;;7.10;99.90;;;;;;5010315;28;20029;-48
2023/02/02 11:48:05;;;;;;;;;;;7.10;99.90;;;;;;5016795;28;20109;-49
2023/02/02 11:50:54;;;;;;;17.85;5.35;;;7.20;99.90;;;;;;5017824;28;19996;-52
2023/02/02 11:53:48;;;;;;;12.70;4.03;;;7.20;99.90;;;;;;5031880;28;20054;-49
2023/02/02 11:56:36;;;;;;;15.70;4.30;;;7.20;99.90;;;;;;5030437;28;20029;-52
2023/02/02 11:59:43;;;;;;;20.85;4.65;;;7.10;99.90;;;;;;5031016;28;20053;-53
2023/02/02 12:02:30;;;;;;;9.55;3.58;;;7.00;99.90;;;;;;5029982;28;20029;-51
2023/02/02 12:05:19;;;;;;;16.30;4.50;;;7.00;99.90;;;;;;5030499;28;20037;-54
2023/02/02 12:08:09;;;;;;;6.88;3.08;;;6.90;99.90;;;;;;5032860;28;20028;-52
2023/02/02 12:11:01;;;;;;;11.02;3.72;;;6.60;99.90;;;;;;5027121;28;20033;-55
2023/02/02 12:14:14;;;;;;;11.57;3.42;;;6.50;99.90;;;;;;5030081;28;20029;-54
2023/02/02 12:17:37;;;;;;;9.48;3.08;;;6.40;99.90;;;;;;5038635;28;20044;-53
2023/02/02 12:20:36;;;;;;;10.73;3.60;;;6.60;99.90;;;;;;5050529;28;20062;-50
2023/02/02 12:23:36;;;;;;;8.20;3.40;;;6.40;99.90;;;;;;5029009;28;20021;-55
2023/02/02 12:26:33;;;;;;;11.45;3.40;;;6.50;99.90;;;;;;5029743;28;20029;-50
2023/02/02 12:29:25;;;;;;;11.68;4.05;;;6.70;99.90;;;;;;5016352;28;20033;-52
2023/02/02 12:32:26;;;;;;;14.60;3.72;;;6.70;99.90;;;;;;5011507;28;20080;-54
2023/02/02 12:35:42;;;;;;;15.75;3.40;;;6.80;99.90;;;;;;5030894;28;20071;-50
2023/02/02 12:38:47;;;;;;;;;;;6.80;99.90;;;;;;5029614;28;20018;-46
2023/02/02 12:41:44;;;;;;;16.20;4.35;;;6.90;99.90;;;;;;5032868;28;19992;-46
2023/02/02 12:45:05;;;;;;;13.73;3.85;;;6.80;99.90;;;;;;5030710;28;20025;-50
2023/02/02 12:48:25;;;;;;;17.55;4.13;;;6.70;99.90;;;;;;5025913;28;20025;-55
2023/02/02 12:51:44;;;;;;;12.13;3.80;;;6.90;99.90;;;;;;5029830;28;20026;-57
2023/02/02 12:54:43;;;;;;;13.18;4.10;;;6.80;99.90;;;;;;5032048;28;20108;-56
2023/02/02 12:57:38;;;;;;;6.25;3.20;;;6.70;99.90;;;;;;5040601;28;20107;-46
2023/02/02 13:00:38;;;;;;;9.18;3.47;;;6.40;99.90;;;;;;5034670;28;20025;-57
2023/02/02 13:03:47;;;;;;;16.65;3.58;;;6.40;99.90;;;;;;5032312;28;20037;-50
2023/02/02 13:06:55;;;;;;;9.15;3.15;;;6.40;99.90;;;;;;4999397;28;20026;-46
2023/02/02 13:10:02;;;;;;;8.98;3.00;;;6.30;99.90;;;;;;5031701;28;20034;-44
2023/02/02 13:12:56;;;;;;;12.40;3.75;;;6.30;99.90;;;;;;5029136;28;20116;-56
2023/02/02 13:15:47;;;;;;;12.98;3.88;;;6.60;99.90;;;;;;5029433;28;20036;-46
2023/02/02 13:18:41;;;;;;;16.85;4.00;;;6.80;99.90;;;;;;5029493;28;20033;-54
2023/02/02 13:21:29;;;;;;;13.02;4.13;;;7.10;99.90;;;;;;5031030;28;20032;-51
2023/02/02 13:24:26;;;;;;;7.47;3.35;;;7.30;99.90;;;;;;5014190;28;20421;-47
2023/02/02 13:27:17;;;;;;;16.30;4.07;;;7.40;99.90;;;;;;5031264;28;20025;-47
2023/02/02 13:30:23;;;;;;;16.60;4.75;;;7.00;99.90;;;;;;5030163;28;20494;-52
2023/02/02 13:33:17;;;;;;;13.18;3.53;;;7.00;99.90;;;;;;5024980;28;20555;-50
2023/02/02 13:36:18;;;;;;;14.05;3.42;;;6.90;99.90;;;;;;5028385;28;20112;-47
2023/02/02 13:39:21;;;;;;;13.15;3.75;;;6.80;99.90;;;;;;5030120;28;20034;-46
2023/02/02 13:42:36;;;;;;;10.63;3.42;;;6.70;99.90;;;;;;5011250;28;20509;-48
2023/02/02 13:45:37;;;;;;;15.27;3.85;;;6.80;99.90;;;;;;4993851;28;20088;-53
2023/02/02 13:48:44;;;;;;;6.07;3.08;;;6.90;99.90;;;;;;5029042;28;20025;-46
2023/02/02 13:51:41;;;;;;;11.40;3.33;;;6.80;99.90;;;;;;5037560;28;20020;-47
2023/02/02 13:54:49;;;;;;;8.35;3.20;;;6.90;99.90;;;;;;5040972;28;20389;-47
2023/02/02 13:58:12;;;;;;;8.82;3.85;;;6.90;99.90;;;;;;5051859;28;20036;-46
2023/02/02 14:01:04;;;;;;;12.63;3.40;;;7.00;99.90;;;;;;5010983;28;20040;-53
2023/02/02 14:03:56;;;;;;;12.95;3.67;;;6.80;99.90;;;;;;5034011;28;20029;-46
2023/02/02 14:06:55;;;;;;;10.23;3.58;;;6.90;99.90;;;;;;5037345;28;20052;-52
2023/02/02 14:09:41;;;;;;;10.52;3.45;;;6.80;99.90;;;;;;5033290;28;20018;-50
2023/02/02 14:12:31;;;;;;;11.73;4.07;;;6.90;99.90;;;;;;5033149;28;20403;-46
2023/02/02 14:15:17;;;;;;;11.60;4.00;;;7.10;99.90;;;;;;5029990;28;20061;-50
2023/02/02 14:18:03;;;;;;;10.82;4.05;;;7.30;99.90;;;;;;5038110;28;20040;-45
2023/02/02 14:20:49;;;;;;;11.32;4.00;;;7.10;99.90;;;;;;5026102;28;20087;-45
2023/02/02 14:23:55;;;;;;;15.18;4.18;;;7.10;99.90;;;;;;5031639;28;20052;-50
2023/02/02 14:26:44;;;;;;;16.08;4.78;;;7.20;99.90;;;;;;5032299;28;20040;-53
2023/02/02 14:29:30;;;;;;;18.30;4.78;;;7.10;99.90;;;;;;5033458;28;20058;-49
2023/02/02 14:32:28;;;;;;;13.05;4.53;;;7.00;99.90;;;;;;5037919;28;20033;-53
2023/02/02 14:35:14;;;;;;;12.77;3.85;;;7.00;99.90;;;;;;5033490;28;20542;-45
2023/02/02 14:38:06;;;;;;;18.17;4.32;;;7.10;99.90;;;;;;5044005;28;20029;-45
2023/02/02 14:41:08;;;;;;;14.25;4.00;;;7.00;99.90;;;;;;5035334;28;20021;-51
2023/02/02 14:43:54;;;;;;;10.23;3.78;;;7.10;99.90;;;;;;5039151;28;20033;-48
2023/02/02 14:46:46;;;;;;;13.18;3.90;;;7.20;99.90;;;;;;5020579;28;20021;-53
2023/02/02 14:49:34;;;;;;;14.05;4.38;;;7.00;99.90;;;;;;5015300;28;20822;-48
2023/02/02 14:52:22;;;;;;;15.80;4.63;;;7.00;99.90;;;;;;5022580;28;20504;-49
2023/02/02 14:55:27;;;;;;;9.70;3.92;;;6.90;99.90;;;;;;5026893;28;20025;-46
2023/02/02 14:58:25;;;;;;;13.88;7.28;;;6.90;99.90;;;;;;5032688;28;20099;-51
2023/02/02 15:01:26;;;;;;;13.93;5.07;;;6.90;99.90;;;;;;5037507;28;20041;-48
2023/02/02 15:04:21;;;;;;;11.88;3.40;;;6.80;99.90;;;;;;5033307;28;20463;-56
2023/02/02 15:07:22;;;;;;;9.82;3.85;;;6.70;99.90;;;;;;5031558;28;20393;-53